Fort Myers Beach, Florida
Current Conditions -  °F | °C
As of 2:53 AM on Sunday 26 Oct 2014 (Local Time) from KFMY Reporting Station
Clear Clear  
Wind Chill: 62°   Ceiling: Unl
Heat Index: 62°   Visibility: 10mi
Dew Point: 58°   Wind: 5mph
Humidity: 86%   Direction: 20°NNE
Pressure: 29.96"   Gusts: NA
Location:  26.45°N, 81.94°W
Report Text: KFMY 260653Z AUTO 02004KT 10SM CLR 17/14 A2996 RMK AO2 SLP148 T01670144 $
Loading
Personal Weather Stations






























Interactive Weather Map New forecast layout! Learn more

10-Day Weather Forecast

Advertisements
Track Severe Weather on mobile